sensor_id;sensor_type;location;lat;lon;timestamp;P1;durP1;ratioP1;P2;durP2;ratioP2
4377;SDS011;2203;53.686;9.994;2023-05-24T00:02:18;59.43;;;7.53;;
4377;SDS011;2203;53.686;9.994;2023-05-24T00:04:44;58.30;;;8.27;;
4377;SDS011;2203;53.686;9.994;2023-05-24T00:07:09;46.83;;;7.60;;
4377;SDS011;2203;53.686;9.994;2023-05-24T00:09:35;48.77;;;7.20;;
4377;SDS011;2203;53.686;9.994;2023-05-24T00:12:00;48.70;;;7.77;;
4377;SDS011;2203;53.686;9.994;2023-05-24T00:14:26;48.43;;;7.40;;
4377;SDS011;2203;53.686;9.994;2023-05-24T00:16:51;38.47;;;7.93;;
4377;SDS011;2203;53.686;9.994;2023-05-24T00:19:16;48.07;;;9.33;;
4377;SDS011;2203;53.686;9.994;2023-05-24T00:21:45;48.83;;;8.07;;
4377;SDS011;2203;53.686;9.994;2023-05-24T00:24:14;38.77;;;7.53;;
4377;SDS011;2203;53.686;9.994;2023-05-24T00:26:40;43.90;;;6.47;;
4377;SDS011;2203;53.686;9.994;2023-05-24T00:29:06;45.30;;;7.67;;
4377;SDS011;2203;53.686;9.994;2023-05-24T00:31:31;39.70;;;6.70;;
4377;SDS011;2203;53.686;9.994;2023-05-24T00:33:57;57.37;;;8.40;;
4377;SDS011;2203;53.686;9.994;2023-05-24T00:36:23;49.23;;;7.10;;
4377;SDS011;2203;53.686;9.994;2023-05-24T00:38:48;49.07;;;7.27;;
4377;SDS011;2203;53.686;9.994;2023-05-24T00:41:14;38.03;;;6.50;;
4377;SDS011;2203;53.686;9.994;2023-05-24T00:43:39;48.90;;;8.23;;
4377;SDS011;2203;53.686;9.994;2023-05-24T00:48:36;61.53;;;7.87;;
4377;SDS011;2203;53.686;9.994;2023-05-24T00:51:01;35.97;;;6.83;;
4377;SDS011;2203;53.686;9.994;2023-05-24T00:53:27;54.27;;;8.70;;
4377;SDS011;2203;53.686;9.994;2023-05-24T00:55:52;39.43;;;7.07;;
4377;SDS011;2203;53.686;9.994;2023-05-24T00:58:17;30.63;;;6.60;;
4377;SDS011;2203;53.686;9.994;2023-05-24T01:00:43;52.40;;;7.73;;
4377;SDS011;2203;53.686;9.994;2023-05-24T01:03:09;51.63;;;7.80;;
4377;SDS011;2203;53.686;9.994;2023-05-24T01:05:34;49.27;;;6.60;;
4377;SDS011;2203;53.686;9.994;2023-05-24T01:08:19;39.57;;;6.47;;
4377;SDS011;2203;53.686;9.994;2023-05-24T01:13:20;47.83;;;8.80;;
4377;SDS011;2203;53.686;9.994;2023-05-24T01:16:04;74.30;;;8.87;;
4377;SDS011;2203;53.686;9.994;2023-05-24T01:18:38;47.67;;;7.27;;
4377;SDS011;2203;53.686;9.994;2023-05-24T01:21:18;44.97;;;8.20;;
4377;SDS011;2203;53.686;9.994;2023-05-24T01:27:28;45.50;;;8.00;;
4377;SDS011;2203;53.686;9.994;2023-05-24T01:29:37;43.07;;;6.97;;
4377;SDS011;2203;53.686;9.994;2023-05-24T01:32:03;50.10;;;7.30;;
4377;SDS011;2203;53.686;9.994;2023-05-24T01:34:29;55.37;;;7.60;;
4377;SDS011;2203;53.686;9.994;2023-05-24T01:36:54;48.83;;;8.03;;
4377;SDS011;2203;53.686;9.994;2023-05-24T01:39:20;53.93;;;8.23;;
4377;SDS011;2203;53.686;9.994;2023-05-24T01:50:01;52.43;;;7.47;;
4377;SDS011;2203;53.686;9.994;2023-05-24T01:52:31;56.40;;;7.57;;
4377;SDS011;2203;53.686;9.994;2023-05-24T01:54:57;47.53;;;7.57;;
4377;SDS011;2203;53.686;9.994;2023-05-24T01:57:25;47.93;;;8.13;;
4377;SDS011;2203;53.686;9.994;2023-05-24T01:59:51;51.33;;;9.00;;
4377;SDS011;2203;53.686;9.994;2023-05-24T02:02:17;48.50;;;7.40;;
4377;SDS011;2203;53.686;9.994;2023-05-24T02:04:42;63.50;;;8.80;;
4377;SDS011;2203;53.686;9.994;2023-05-24T02:07:08;54.83;;;9.00;;
4377;SDS011;2203;53.686;9.994;2023-05-24T02:09:33;47.17;;;8.47;;
4377;SDS011;2203;53.686;9.994;2023-05-24T02:11:59;55.30;;;8.90;;
4377;SDS011;2203;53.686;9.994;2023-05-24T02:14:24;54.37;;;7.63;;
4377;SDS011;2203;53.686;9.994;2023-05-24T02:16:50;58.17;;;7.67;;
4377;SDS011;2203;53.686;9.994;2023-05-24T02:19:16;60.47;;;8.10;;
4377;SDS011;2203;53.686;9.994;2023-05-24T02:21:41;38.10;;;7.17;;
4377;SDS011;2203;53.686;9.994;2023-05-24T02:24:07;28.33;;;7.03;;
4377;SDS011;2203;53.686;9.994;2023-05-24T02:26:35;46.73;;;8.43;;
4377;SDS011;2203;53.686;9.994;2023-05-24T02:29:01;51.23;;;6.87;;
4377;SDS011;2203;53.686;9.994;2023-05-24T02:31:26;45.70;;;7.17;;
4377;SDS011;2203;53.686;9.994;2023-05-24T02:33:53;50.60;;;6.97;;
4377;SDS011;2203;53.686;9.994;2023-05-24T02:36:22;54.30;;;8.23;;
4377;SDS011;2203;53.686;9.994;2023-05-24T02:38:51;41.10;;;7.27;;
4377;SDS011;2203;53.686;9.994;2023-05-24T02:41:16;44.67;;;7.50;;
4377;SDS011;2203;53.686;9.994;2023-05-24T02:43:45;50.70;;;8.13;;
4377;SDS011;2203;53.686;9.994;2023-05-24T02:46:11;43.07;;;7.63;;
4377;SDS011;2203;53.686;9.994;2023-05-24T02:48:37;49.50;;;10.23;;
4377;SDS011;2203;53.686;9.994;2023-05-24T02:51:03;50.20;;;7.00;;
4377;SDS011;2203;53.686;9.994;2023-05-24T02:53:29;58.23;;;7.30;;
4377;SDS011;2203;53.686;9.994;2023-05-24T02:55:55;52.03;;;7.20;;
4377;SDS011;2203;53.686;9.994;2023-05-24T02:58:20;51.13;;;7.20;;
4377;SDS011;2203;53.686;9.994;2023-05-24T03:00:47;32.97;;;6.18;;
4377;SDS011;2203;53.686;9.994;2023-05-24T03:03:12;44.27;;;7.20;;
4377;SDS011;2203;53.686;9.994;2023-05-24T03:05:38;38.43;;;7.73;;
4377;SDS011;2203;53.686;9.994;2023-05-24T03:08:03;66.97;;;6.97;;
4377;SDS011;2203;53.686;9.994;2023-05-24T03:10:28;48.30;;;7.70;;
4377;SDS011;2203;53.686;9.994;2023-05-24T03:12:54;44.93;;;6.73;;
4377;SDS011;2203;53.686;9.994;2023-05-24T03:15:19;43.43;;;7.87;;
4377;SDS011;2203;53.686;9.994;2023-05-24T03:17:45;46.80;;;7.30;;
4377;SDS011;2203;53.686;9.994;2023-05-24T03:20:10;34.90;;;6.67;;
4377;SDS011;2203;53.686;9.994;2023-05-24T03:22:36;56.23;;;7.80;;
4377;SDS011;2203;53.686;9.994;2023-05-24T03:25:01;40.87;;;7.23;;
4377;SDS011;2203;53.686;9.994;2023-05-24T03:27:27;50.17;;;6.50;;
4377;SDS011;2203;53.686;9.994;2023-05-24T03:29:52;33.60;;;6.70;;
4377;SDS011;2203;53.686;9.994;2023-05-24T03:32:17;51.87;;;9.10;;
4377;SDS011;2203;53.686;9.994;2023-05-24T03:34:43;56.33;;;7.47;;
4377;SDS011;2203;53.686;9.994;2023-05-24T03:37:08;35.03;;;8.07;;
4377;SDS011;2203;53.686;9.994;2023-05-24T03:39:34;39.97;;;6.93;;
4377;SDS011;2203;53.686;9.994;2023-05-24T03:41:59;54.70;;;6.23;;
4377;SDS011;2203;53.686;9.994;2023-05-24T03:44:25;41.67;;;7.00;;
4377;SDS011;2203;53.686;9.994;2023-05-24T03:46:50;46.40;;;7.17;;
4377;SDS011;2203;53.686;9.994;2023-05-24T03:49:16;50.83;;;6.50;;
4377;SDS011;2203;53.686;9.994;2023-05-24T03:51:41;53.13;;;8.63;;
4377;SDS011;2203;53.686;9.994;2023-05-24T03:54:06;50.10;;;8.07;;
4377;SDS011;2203;53.686;9.994;2023-05-24T03:56:32;47.03;;;8.30;;
4377;SDS011;2203;53.686;9.994;2023-05-24T03:58:57;58.33;;;10.10;;
4377;SDS011;2203;53.686;9.994;2023-05-24T04:01:24;40.00;;;6.60;;
4377;SDS011;2203;53.686;9.994;2023-05-24T04:03:50;53.07;;;8.50;;
4377;SDS011;2203;53.686;9.994;2023-05-24T04:06:16;33.17;;;6.93;;
4377;SDS011;2203;53.686;9.994;2023-05-24T04:08:42;52.87;;;8.70;;
4377;SDS011;2203;53.686;9.994;2023-05-24T04:11:08;40.30;;;8.70;;
4377;SDS011;2203;53.686;9.994;2023-05-24T04:13:33;41.83;;;6.80;;
4377;SDS011;2203;53.686;9.994;2023-05-24T04:15:58;39.20;;;7.80;;
4377;SDS011;2203;53.686;9.994;2023-05-24T04:18:24;62.97;;;10.67;;
4377;SDS011;2203;53.686;9.994;2023-05-24T04:20:49;55.20;;;7.97;;
4377;SDS011;2203;53.686;9.994;2023-05-24T04:23:15;37.90;;;6.57;;
4377;SDS011;2203;53.686;9.994;2023-05-24T04:25:41;46.90;;;7.47;;
4377;SDS011;2203;53.686;9.994;2023-05-24T04:28:06;33.87;;;6.67;;
4377;SDS011;2203;53.686;9.994;2023-05-24T04:30:32;60.77;;;8.00;;
4377;SDS011;2203;53.686;9.994;2023-05-24T04:32:57;57.13;;;8.67;;
4377;SDS011;2203;53.686;9.994;2023-05-24T04:35:23;31.93;;;6.97;;
4377;SDS011;2203;53.686;9.994;2023-05-24T04:37:52;53.70;;;9.23;;
4377;SDS011;2203;53.686;9.994;2023-05-24T04:40:17;49.57;;;7.57;;
4377;SDS011;2203;53.686;9.994;2023-05-24T04:42:46;48.77;;;7.10;;
4377;SDS011;2203;53.686;9.994;2023-05-24T04:45:12;41.13;;;6.60;;
4377;SDS011;2203;53.686;9.994;2023-05-24T04:47:37;60.37;;;8.13;;
4377;SDS011;2203;53.686;9.994;2023-05-24T04:50:03;65.93;;;7.90;;
4377;SDS011;2203;53.686;9.994;2023-05-24T04:52:29;46.23;;;7.67;;
4377;SDS011;2203;53.686;9.994;2023-05-24T04:54:54;45.73;;;7.90;;
4377;SDS011;2203;53.686;9.994;2023-05-24T04:57:21;54.83;;;7.80;;
4377;SDS011;2203;53.686;9.994;2023-05-24T04:59:47;47.13;;;7.60;;
4377;SDS011;2203;53.686;9.994;2023-05-24T05:02:12;48.10;;;8.23;;
4377;SDS011;2203;53.686;9.994;2023-05-24T05:04:38;53.30;;;8.07;;
4377;SDS011;2203;53.686;9.994;2023-05-24T05:07:03;45.67;;;6.73;;
4377;SDS011;2203;53.686;9.994;2023-05-24T05:09:29;37.17;;;6.80;;
4377;SDS011;2203;53.686;9.994;2023-05-24T05:11:54;52.40;;;9.30;;
4377;SDS011;2203;53.686;9.994;2023-05-24T05:14:20;46.37;;;8.27;;
4377;SDS011;2203;53.686;9.994;2023-05-24T05:16:45;36.90;;;7.67;;
4377;SDS011;2203;53.686;9.994;2023-05-24T05:19:10;41.13;;;8.20;;
4377;SDS011;2203;53.686;9.994;2023-05-24T05:21:36;33.87;;;7.47;;
4377;SDS011;2203;53.686;9.994;2023-05-24T05:24:03;46.07;;;8.23;;
4377;SDS011;2203;53.686;9.994;2023-05-24T05:26:29;45.63;;;7.57;;
4377;SDS011;2203;53.686;9.994;2023-05-24T05:28:55;50.60;;;7.53;;
4377;SDS011;2203;53.686;9.994;2023-05-24T05:31:22;56.00;;;8.10;;
4377;SDS011;2203;53.686;9.994;2023-05-24T05:33:48;49.60;;;8.00;;
4377;SDS011;2203;53.686;9.994;2023-05-24T05:36:14;44.70;;;7.17;;
4377;SDS011;2203;53.686;9.994;2023-05-24T05:38:39;42.67;;;8.52;;
4377;SDS011;2203;53.686;9.994;2023-05-24T05:41:05;50.47;;;7.43;;
4377;SDS011;2203;53.686;9.994;2023-05-24T05:43:31;43.67;;;7.80;;
4377;SDS011;2203;53.686;9.994;2023-05-24T05:45:56;51.90;;;8.33;;
4377;SDS011;2203;53.686;9.994;2023-05-24T05:48:22;50.60;;;8.53;;
4377;SDS011;2203;53.686;9.994;2023-05-24T05:50:47;48.00;;;7.57;;
4377;SDS011;2203;53.686;9.994;2023-05-24T05:53:14;48.33;;;9.03;;
4377;SDS011;2203;53.686;9.994;2023-05-24T05:55:39;51.00;;;8.33;;
4377;SDS011;2203;53.686;9.994;2023-05-24T05:58:05;56.87;;;8.20;;
4377;SDS011;2203;53.686;9.994;2023-05-24T06:00:30;69.17;;;8.73;;
4377;SDS011;2203;53.686;9.994;2023-05-24T06:02:56;62.87;;;8.90;;
4377;SDS011;2203;53.686;9.994;2023-05-24T06:05:21;65.77;;;9.37;;
4377;SDS011;2203;53.686;9.994;2023-05-24T06:07:46;42.83;;;7.03;;
4377;SDS011;2203;53.686;9.994;2023-05-24T06:10:12;58.17;;;8.30;;
4377;SDS011;2203;53.686;9.994;2023-05-24T06:12:37;41.03;;;7.43;;
4377;SDS011;2203;53.686;9.994;2023-05-24T06:15:04;58.30;;;8.20;;
4377;SDS011;2203;53.686;9.994;2023-05-24T06:17:33;57.17;;;10.77;;
4377;SDS011;2203;53.686;9.994;2023-05-24T06:19:59;82.03;;;10.30;;
4377;SDS011;2203;53.686;9.994;2023-05-24T06:22:25;68.93;;;8.00;;
4377;SDS011;2203;53.686;9.994;2023-05-24T06:24:52;53.90;;;9.23;;
4377;SDS011;2203;53.686;9.994;2023-05-24T06:27:17;50.37;;;9.90;;
4377;SDS011;2203;53.686;9.994;2023-05-24T06:29:43;90.27;;;8.40;;
4377;SDS011;2203;53.686;9.994;2023-05-24T06:32:08;45.03;;;7.23;;
4377;SDS011;2203;53.686;9.994;2023-05-24T06:34:34;68.07;;;9.20;;
4377;SDS011;2203;53.686;9.994;2023-05-24T06:36:59;43.67;;;7.73;;
4377;SDS011;2203;53.686;9.994;2023-05-24T06:39:26;56.20;;;8.13;;
4377;SDS011;2203;53.686;9.994;2023-05-24T06:41:51;41.73;;;8.83;;
4377;SDS011;2203;53.686;9.994;2023-05-24T06:44:17;65.67;;;8.57;;
4377;SDS011;2203;53.686;9.994;2023-05-24T06:46:43;53.30;;;8.03;;
4377;SDS011;2203;53.686;9.994;2023-05-24T06:49:08;46.53;;;7.23;;
4377;SDS011;2203;53.686;9.994;2023-05-24T06:51:34;49.13;;;8.77;;
4377;SDS011;2203;53.686;9.994;2023-05-24T06:54:00;57.63;;;7.40;;
4377;SDS011;2203;53.686;9.994;2023-05-24T06:56:25;57.30;;;7.30;;
4377;SDS011;2203;53.686;9.994;2023-05-24T06:58:51;38.50;;;7.87;;
4377;SDS011;2203;53.686;9.994;2023-05-24T07:01:16;51.50;;;7.73;;
4377;SDS011;2203;53.686;9.994;2023-05-24T07:03:42;45.43;;;8.27;;
4377;SDS011;2203;53.686;9.994;2023-05-24T07:06:08;47.77;;;7.27;;
4377;SDS011;2203;53.686;9.994;2023-05-24T07:08:37;59.23;;;7.77;;
4377;SDS011;2203;53.686;9.994;2023-05-24T07:11:03;47.83;;;7.90;;
4377;SDS011;2203;53.686;9.994;2023-05-24T07:13:28;50.83;;;7.30;;
4377;SDS011;2203;53.686;9.994;2023-05-24T07:15:54;51.13;;;8.40;;
4377;SDS011;2203;53.686;9.994;2023-05-24T07:18:19;55.67;;;8.80;;
4377;SDS011;2203;53.686;9.994;2023-05-24T07:20:45;41.13;;;7.70;;
4377;SDS011;2203;53.686;9.994;2023-05-24T07:23:10;45.73;;;9.53;;
4377;SDS011;2203;53.686;9.994;2023-05-24T07:25:36;50.97;;;7.90;;
4377;SDS011;2203;53.686;9.994;2023-05-24T07:28:01;51.60;;;8.37;;
4377;SDS011;2203;53.686;9.994;2023-05-24T07:30:26;42.97;;;8.00;;
4377;SDS011;2203;53.686;9.994;2023-05-24T07:32:52;45.37;;;7.77;;
4377;SDS011;2203;53.686;9.994;2023-05-24T07:35:18;47.97;;;7.63;;
4377;SDS011;2203;53.686;9.994;2023-05-24T07:37:43;42.60;;;7.03;;
4377;SDS011;2203;53.686;9.994;2023-05-24T07:40:08;44.40;;;8.93;;
4377;SDS011;2203;53.686;9.994;2023-05-24T07:42:38;53.47;;;8.70;;
4377;SDS011;2203;53.686;9.994;2023-05-24T07:45:05;54.13;;;8.20;;
4377;SDS011;2203;53.686;9.994;2023-05-24T07:47:31;67.00;;;8.95;;
4377;SDS011;2203;53.686;9.994;2023-05-24T07:49:56;38.53;;;7.77;;
4377;SDS011;2203;53.686;9.994;2023-05-24T07:52:22;53.43;;;8.03;;
4377;SDS011;2203;53.686;9.994;2023-05-24T07:54:48;42.97;;;7.17;;
4377;SDS011;2203;53.686;9.994;2023-05-24T07:57:13;43.17;;;8.47;;
4377;SDS011;2203;53.686;9.994;2023-05-24T07:59:39;49.80;;;9.27;;
4377;SDS011;2203;53.686;9.994;2023-05-24T08:02:05;54.57;;;7.70;;
4377;SDS011;2203;53.686;9.994;2023-05-24T08:04:30;36.13;;;7.10;;
4377;SDS011;2203;53.686;9.994;2023-05-24T08:06:57;43.00;;;7.47;;
4377;SDS011;2203;53.686;9.994;2023-05-24T08:09:23;34.43;;;7.07;;
4377;SDS011;2203;53.686;9.994;2023-05-24T08:11:48;38.43;;;7.73;;
4377;SDS011;2203;53.686;9.994;2023-05-24T08:14:14;38.67;;;7.07;;
4377;SDS011;2203;53.686;9.994;2023-05-24T08:16:39;34.47;;;7.53;;
4377;SDS011;2203;53.686;9.994;2023-05-24T08:19:05;46.67;;;7.63;;
4377;SDS011;2203;53.686;9.994;2023-05-24T08:21:30;47.00;;;8.63;;
4377;SDS011;2203;53.686;9.994;2023-05-24T08:23:57;37.83;;;8.03;;
4377;SDS011;2203;53.686;9.994;2023-05-24T08:26:24;55.93;;;8.33;;
4377;SDS011;2203;53.686;9.994;2023-05-24T08:28:50;40.97;;;7.60;;
4377;SDS011;2203;53.686;9.994;2023-05-24T08:31:15;36.27;;;8.43;;
4377;SDS011;2203;53.686;9.994;2023-05-24T08:33:40;47.50;;;8.20;;
4377;SDS011;2203;53.686;9.994;2023-05-24T08:36:07;41.80;;;7.53;;
4377;SDS011;2203;53.686;9.994;2023-05-24T08:38:32;39.00;;;7.47;;
4377;SDS011;2203;53.686;9.994;2023-05-24T08:40:57;32.03;;;6.73;;
4377;SDS011;2203;53.686;9.994;2023-05-24T08:43:23;31.33;;;6.73;;
4377;SDS011;2203;53.686;9.994;2023-05-24T08:45:48;50.50;;;8.80;;
4377;SDS011;2203;53.686;9.994;2023-05-24T08:48:14;48.97;;;7.20;;
4377;SDS011;2203;53.686;9.994;2023-05-24T08:50:42;31.57;;;6.17;;
4377;SDS011;2203;53.686;9.994;2023-05-24T08:53:07;36.43;;;6.57;;
4377;SDS011;2203;53.686;9.994;2023-05-24T08:55:34;31.90;;;5.75;;
4377;SDS011;2203;53.686;9.994;2023-05-24T08:58:00;32.87;;;6.27;;
4377;SDS011;2203;53.686;9.994;2023-05-24T09:00:27;39.80;;;5.70;;
4377;SDS011;2203;53.686;9.994;2023-05-24T09:02:53;28.00;;;6.03;;
4377;SDS011;2203;53.686;9.994;2023-05-24T09:05:21;29.50;;;7.00;;
4377;SDS011;2203;53.686;9.994;2023-05-24T09:07:47;37.43;;;6.87;;
4377;SDS011;2203;53.686;9.994;2023-05-24T09:10:13;22.23;;;6.10;;
4377;SDS011;2203;53.686;9.994;2023-05-24T09:12:43;24.67;;;5.90;;
4377;SDS011;2203;53.686;9.994;2023-05-24T09:15:09;33.23;;;7.50;;
4377;SDS011;2203;53.686;9.994;2023-05-24T09:17:35;24.53;;;5.60;;
4377;SDS011;2203;53.686;9.994;2023-05-24T09:20:02;43.67;;;6.07;;
4377;SDS011;2203;53.686;9.994;2023-05-24T09:22:30;31.37;;;6.70;;
4377;SDS011;2203;53.686;9.994;2023-05-24T09:25:00;36.97;;;6.43;;
4377;SDS011;2203;53.686;9.994;2023-05-24T09:27:26;38.40;;;6.40;;
4377;SDS011;2203;53.686;9.994;2023-05-24T09:29:53;27.33;;;6.32;;
4377;SDS011;2203;53.686;9.994;2023-05-24T09:32:19;39.30;;;6.70;;
4377;SDS011;2203;53.686;9.994;2023-05-24T09:34:48;37.17;;;5.80;;
4377;SDS011;2203;53.686;9.994;2023-05-24T09:37:16;31.77;;;6.90;;
4377;SDS011;2203;53.686;9.994;2023-05-24T09:39:42;47.33;;;8.57;;
4377;SDS011;2203;53.686;9.994;2023-05-24T09:42:19;34.43;;;5.60;;
4377;SDS011;2203;53.686;9.994;2023-05-24T09:45:09;30.73;;;6.20;;
4377;SDS011;2203;53.686;9.994;2023-05-24T09:47:38;25.17;;;5.63;;
4377;SDS011;2203;53.686;9.994;2023-05-24T09:50:05;38.20;;;5.73;;
4377;SDS011;2203;53.686;9.994;2023-05-24T09:52:37;27.77;;;5.97;;
4377;SDS011;2203;53.686;9.994;2023-05-24T09:55:15;28.27;;;5.03;;
4377;SDS011;2203;53.686;9.994;2023-05-24T09:57:42;26.03;;;4.87;;
4377;SDS011;2203;53.686;9.994;2023-05-24T10:00:08;26.43;;;5.17;;
4377;SDS011;2203;53.686;9.994;2023-05-24T10:02:41;19.47;;;4.97;;
4377;SDS011;2203;53.686;9.994;2023-05-24T10:05:09;30.50;;;4.73;;
4377;SDS011;2203;53.686;9.994;2023-05-24T10:07:36;30.30;;;6.07;;
4377;SDS011;2203;53.686;9.994;2023-05-24T10:10:03;24.13;;;5.73;;
4377;SDS011;2203;53.686;9.994;2023-05-24T10:12:29;28.17;;;6.17;;
4377;SDS011;2203;53.686;9.994;2023-05-24T10:14:55;19.93;;;4.70;;
4377;SDS011;2203;53.686;9.994;2023-05-24T10:17:21;23.40;;;4.60;;
4377;SDS011;2203;53.686;9.994;2023-05-24T10:19:47;29.87;;;5.30;;
4377;SDS011;2203;53.686;9.994;2023-05-24T10:22:12;21.33;;;4.60;;
4377;SDS011;2203;53.686;9.994;2023-05-24T10:24:38;26.93;;;5.40;;
4377;SDS011;2203;53.686;9.994;2023-05-24T10:27:08;32.27;;;6.00;;
4377;SDS011;2203;53.686;9.994;2023-05-24T10:32:23;20.90;;;5.00;;
4377;SDS011;2203;53.686;9.994;2023-05-24T10:34:50;35.67;;;7.83;;
4377;SDS011;2203;53.686;9.994;2023-05-24T10:37:18;27.07;;;5.07;;
4377;SDS011;2203;53.686;9.994;2023-05-24T10:39:43;27.10;;;5.40;;
4377;SDS011;2203;53.686;9.994;2023-05-24T10:42:08;24.33;;;4.77;;
4377;SDS011;2203;53.686;9.994;2023-05-24T10:44:34;21.00;;;5.83;;
4377;SDS011;2203;53.686;9.994;2023-05-24T10:47:06;24.63;;;4.80;;
4377;SDS011;2203;53.686;9.994;2023-05-24T10:49:37;21.20;;;4.90;;
4377;SDS011;2203;53.686;9.994;2023-05-24T10:52:07;25.87;;;4.27;;
4377;SDS011;2203;53.686;9.994;2023-05-24T10:54:33;22.20;;;5.07;;
4377;SDS011;2203;53.686;9.994;2023-05-24T10:57:01;26.57;;;4.80;;
4377;SDS011;2203;53.686;9.994;2023-05-24T11:02:02;22.90;;;5.10;;
4377;SDS011;2203;53.686;9.994;2023-05-24T11:04:32;21.90;;;4.83;;
4377;SDS011;2203;53.686;9.994;2023-05-24T11:07:01;16.43;;;4.30;;
4377;SDS011;2203;53.686;9.994;2023-05-24T11:09:29;33.53;;;5.60;;
4377;SDS011;2203;53.686;9.994;2023-05-24T11:11:57;14.80;;;4.10;;
4377;SDS011;2203;53.686;9.994;2023-05-24T11:14:26;19.90;;;4.87;;
4377;SDS011;2203;53.686;9.994;2023-05-24T11:16:53;24.30;;;5.07;;
4377;SDS011;2203;53.686;9.994;2023-05-24T11:19:23;24.00;;;3.97;;
4377;SDS011;2203;53.686;9.994;2023-05-24T11:21:53;21.47;;;4.80;;
4377;SDS011;2203;53.686;9.994;2023-05-24T11:24:22;17.73;;;4.37;;
4377;SDS011;2203;53.686;9.994;2023-05-24T11:26:49;20.60;;;4.30;;
4377;SDS011;2203;53.686;9.994;2023-05-24T11:29:15;22.58;;;4.30;;
4377;SDS011;2203;53.686;9.994;2023-05-24T11:31:47;27.83;;;4.70;;
4377;SDS011;2203;53.686;9.994;2023-05-24T11:34:16;15.00;;;4.63;;
4377;SDS011;2203;53.686;9.994;2023-05-24T11:36:43;14.37;;;4.03;;
4377;SDS011;2203;53.686;9.994;2023-05-24T11:39:09;18.80;;;4.25;;
4377;SDS011;2203;53.686;9.994;2023-05-24T11:41:37;20.83;;;4.17;;
4377;SDS011;2203;53.686;9.994;2023-05-24T11:44:03;28.50;;;5.00;;
4377;SDS011;2203;53.686;9.994;2023-05-24T11:46:30;21.30;;;4.70;;
4377;SDS011;2203;53.686;9.994;2023-05-24T11:48:56;19.63;;;4.60;;
4377;SDS011;2203;53.686;9.994;2023-05-24T11:51:25;13.47;;;3.37;;
4377;SDS011;2203;53.686;9.994;2023-05-24T11:53:51;19.83;;;5.60;;
4377;SDS011;2203;53.686;9.994;2023-05-24T11:56:17;22.00;;;4.97;;
4377;SDS011;2203;53.686;9.994;2023-05-24T11:58:51;18.37;;;4.60;;
4377;SDS011;2203;53.686;9.994;2023-05-24T12:01:27;16.20;;;4.27;;
4377;SDS011;2203;53.686;9.994;2023-05-24T12:03:53;23.80;;;4.97;;
4377;SDS011;2203;53.686;9.994;2023-05-24T12:06:19;10.73;;;3.57;;
4377;SDS011;2203;53.686;9.994;2023-05-24T12:08:44;13.93;;;4.00;;
4377;SDS011;2203;53.686;9.994;2023-05-24T12:11:10;17.33;;;4.77;;
4377;SDS011;2203;53.686;9.994;2023-05-24T12:13:36;22.73;;;4.97;;
4377;SDS011;2203;53.686;9.994;2023-05-24T12:16:04;19.80;;;4.77;;
4377;SDS011;2203;53.686;9.994;2023-05-24T12:18:30;13.27;;;4.50;;
4377;SDS011;2203;53.686;9.994;2023-05-24T12:20:56;25.80;;;4.90;;
4377;SDS011;2203;53.686;9.994;2023-05-24T12:23:22;15.03;;;4.07;;
4377;SDS011;2203;53.686;9.994;2023-05-24T12:25:49;23.87;;;4.07;;
4377;SDS011;2203;53.686;9.994;2023-05-24T12:28:14;16.17;;;4.03;;
4377;SDS011;2203;53.686;9.994;2023-05-24T12:30:40;23.40;;;4.88;;
4377;SDS011;2203;53.686;9.994;2023-05-24T12:33:11;14.57;;;4.67;;
4377;SDS011;2203;53.686;9.994;2023-05-24T12:35:36;18.40;;;4.50;;
4377;SDS011;2203;53.686;9.994;2023-05-24T12:38:07;20.03;;;4.17;;
4377;SDS011;2203;53.686;9.994;2023-05-24T12:40:32;18.60;;;4.57;;
4377;SDS011;2203;53.686;9.994;2023-05-24T12:42:58;28.77;;;5.57;;
4377;SDS011;2203;53.686;9.994;2023-05-24T12:45:24;12.13;;;4.03;;
4377;SDS011;2203;53.686;9.994;2023-05-24T12:47:52;12.67;;;4.23;;
4377;SDS011;2203;53.686;9.994;2023-05-24T12:50:22;24.70;;;5.90;;
4377;SDS011;2203;53.686;9.994;2023-05-24T12:52:48;10.20;;;4.32;;
4377;SDS011;2203;53.686;9.994;2023-05-24T12:55:23;11.60;;;4.13;;
4377;SDS011;2203;53.686;9.994;2023-05-24T12:57:50;13.87;;;4.20;;
4377;SDS011;2203;53.686;9.994;2023-05-24T13:00:23;17.67;;;4.05;;
4377;SDS011;2203;53.686;9.994;2023-05-24T13:02:53;15.50;;;3.83;;
4377;SDS011;2203;53.686;9.994;2023-05-24T13:05:24;28.97;;;5.43;;
4377;SDS011;2203;53.686;9.994;2023-05-24T13:07:51;20.90;;;4.83;;
4377;SDS011;2203;53.686;9.994;2023-05-24T13:10:17;12.85;;;4.82;;
4377;SDS011;2203;53.686;9.994;2023-05-24T13:12:46;21.43;;;5.67;;
4377;SDS011;2203;53.686;9.994;2023-05-24T13:15:12;21.27;;;4.50;;
4377;SDS011;2203;53.686;9.994;2023-05-24T13:17:38;19.60;;;4.37;;
4377;SDS011;2203;53.686;9.994;2023-05-24T13:20:04;18.60;;;5.07;;
4377;SDS011;2203;53.686;9.994;2023-05-24T13:22:32;16.57;;;5.43;;
4377;SDS011;2203;53.686;9.994;2023-05-24T13:24:58;12.93;;;4.20;;
4377;SDS011;2203;53.686;9.994;2023-05-24T13:27:23;17.67;;;4.77;;
4377;SDS011;2203;53.686;9.994;2023-05-24T13:29:48;20.67;;;4.47;;
4377;SDS011;2203;53.686;9.994;2023-05-24T13:32:14;17.60;;;4.87;;
4377;SDS011;2203;53.686;9.994;2023-05-24T13:34:40;23.43;;;5.13;;
4377;SDS011;2203;53.686;9.994;2023-05-24T13:37:06;21.47;;;5.50;;
4377;SDS011;2203;53.686;9.994;2023-05-24T13:39:32;12.07;;;4.20;;
4377;SDS011;2203;53.686;9.994;2023-05-24T13:41:59;13.63;;;4.70;;
4377;SDS011;2203;53.686;9.994;2023-05-24T13:44:25;19.67;;;5.40;;
4377;SDS011;2203;53.686;9.994;2023-05-24T13:46:52;21.10;;;5.00;;
4377;SDS011;2203;53.686;9.994;2023-05-24T13:49:18;19.93;;;4.43;;
4377;SDS011;2203;53.686;9.994;2023-05-24T13:51:43;16.90;;;5.10;;
4377;SDS011;2203;53.686;9.994;2023-05-24T13:54:09;14.30;;;4.80;;
4377;SDS011;2203;53.686;9.994;2023-05-24T13:56:35;14.87;;;4.67;;
4377;SDS011;2203;53.686;9.994;2023-05-24T13:59:01;20.93;;;5.20;;
4377;SDS011;2203;53.686;9.994;2023-05-24T14:01:28;17.95;;;5.45;;
4377;SDS011;2203;53.686;9.994;2023-05-24T14:03:54;17.70;;;4.30;;
4377;SDS011;2203;53.686;9.994;2023-05-24T14:06:19;12.53;;;4.33;;
4377;SDS011;2203;53.686;9.994;2023-05-24T14:08:46;26.60;;;5.93;;
4377;SDS011;2203;53.686;9.994;2023-05-24T14:11:11;18.20;;;5.40;;
4377;SDS011;2203;53.686;9.994;2023-05-24T14:13:38;17.47;;;5.27;;
4377;SDS011;2203;53.686;9.994;2023-05-24T14:16:05;20.50;;;5.43;;
4377;SDS011;2203;53.686;9.994;2023-05-24T14:18:31;17.00;;;4.90;;
4377;SDS011;2203;53.686;9.994;2023-05-24T14:20:56;13.37;;;3.30;;
4377;SDS011;2203;53.686;9.994;2023-05-24T14:23:21;14.87;;;3.53;;
4377;SDS011;2203;53.686;9.994;2023-05-24T14:25:47;24.83;;;5.50;;
4377;SDS011;2203;53.686;9.994;2023-05-24T14:28:12;19.20;;;5.67;;
4377;SDS011;2203;53.686;9.994;2023-05-24T14:30:38;25.97;;;7.03;;
4377;SDS011;2203;53.686;9.994;2023-05-24T14:33:03;20.50;;;5.53;;
4377;SDS011;2203;53.686;9.994;2023-05-24T14:35:30;18.30;;;6.07;;
4377;SDS011;2203;53.686;9.994;2023-05-24T14:38:02;20.77;;;4.90;;
4377;SDS011;2203;53.686;9.994;2023-05-24T14:40:28;28.87;;;6.10;;
4377;SDS011;2203;53.686;9.994;2023-05-24T14:42:54;33.57;;;7.63;;
4377;SDS011;2203;53.686;9.994;2023-05-24T14:45:19;26.03;;;6.53;;
4377;SDS011;2203;53.686;9.994;2023-05-24T14:47:45;26.20;;;8.17;;
4377;SDS011;2203;53.686;9.994;2023-05-24T14:50:10;34.50;;;8.03;;
4377;SDS011;2203;53.686;9.994;2023-05-24T14:52:36;35.63;;;8.00;;
4377;SDS011;2203;53.686;9.994;2023-05-24T14:55:02;26.57;;;6.87;;
4377;SDS011;2203;53.686;9.994;2023-05-24T14:57:28;34.03;;;7.30;;
4377;SDS011;2203;53.686;9.994;2023-05-24T14:59:53;29.80;;;7.83;;
4377;SDS011;2203;53.686;9.994;2023-05-24T15:02:19;22.10;;;6.83;;
4377;SDS011;2203;53.686;9.994;2023-05-24T15:04:44;25.80;;;7.37;;
4377;SDS011;2203;53.686;9.994;2023-05-24T15:07:10;32.97;;;8.23;;
4377;SDS011;2203;53.686;9.994;2023-05-24T15:09:35;27.10;;;6.70;;
4377;SDS011;2203;53.686;9.994;2023-05-24T15:12:00;47.20;;;8.07;;
4377;SDS011;2203;53.686;9.994;2023-05-24T15:14:26;24.37;;;7.10;;
4377;SDS011;2203;53.686;9.994;2023-05-24T15:16:52;34.30;;;7.20;;
4377;SDS011;2203;53.686;9.994;2023-05-24T15:19:17;35.57;;;7.40;;